sensor_id;sensor_type;location;lat;lon;timestamp;P1;durP1;ratioP1;P2;durP2;ratioP2
1799;SDS011;919;48.274;12.292;2022-10-16T00:01:38;1.90;;;1.80;;
1799;SDS011;919;48.274;12.292;2022-10-16T00:04:05;5.03;;;2.57;;
1799;SDS011;919;48.274;12.292;2022-10-16T00:06:31;2.77;;;1.87;;
1799;SDS011;919;48.274;12.292;2022-10-16T00:08:59;1.60;;;1.50;;
1799;SDS011;919;48.274;12.292;2022-10-16T00:11:28;2.27;;;2.07;;
1799;SDS011;919;48.274;12.292;2022-10-16T00:13:56;2.20;;;1.97;;
1799;SDS011;919;48.274;12.292;2022-10-16T00:16:24;8.60;;;2.00;;
1799;SDS011;919;48.274;12.292;2022-10-16T00:18:51;1.60;;;1.50;;
1799;SDS011;919;48.274;12.292;2022-10-16T00:21:21;2.23;;;1.83;;
1799;SDS011;919;48.274;12.292;2022-10-16T00:23:50;1.63;;;1.50;;
1799;SDS011;919;48.274;12.292;2022-10-16T00:26:17;1.87;;;1.73;;
1799;SDS011;919;48.274;12.292;2022-10-16T00:28:46;1.70;;;1.60;;
1799;SDS011;919;48.274;12.292;2022-10-16T00:31:14;1.73;;;1.63;;
1799;SDS011;919;48.274;12.292;2022-10-16T00:33:42;2.37;;;1.57;;
1799;SDS011;919;48.274;12.292;2022-10-16T00:36:10;1.17;;;1.07;;
1799;SDS011;919;48.274;12.292;2022-10-16T00:38:38;1.20;;;1.10;;
1799;SDS011;919;48.274;12.292;2022-10-16T00:41:05;1.07;;;1.03;;
1799;SDS011;919;48.274;12.292;2022-10-16T00:43:34;1.20;;;1.10;;
1799;SDS011;919;48.274;12.292;2022-10-16T00:46:08;1.40;;;1.30;;
1799;SDS011;919;48.274;12.292;2022-10-16T00:48:41;1.90;;;1.80;;
1799;SDS011;919;48.274;12.292;2022-10-16T00:51:11;1.97;;;1.87;;
1799;SDS011;919;48.274;12.292;2022-10-16T00:53:38;4.40;;;1.67;;
1799;SDS011;919;48.274;12.292;2022-10-16T00:56:05;2.10;;;1.67;;
1799;SDS011;919;48.274;12.292;2022-10-16T00:58:32;1.63;;;1.53;;
1799;SDS011;919;48.274;12.292;2022-10-16T01:00:59;2.90;;;1.30;;
1799;SDS011;919;48.274;12.292;2022-10-16T01:03:28;2.23;;;1.80;;
1799;SDS011;919;48.274;12.292;2022-10-16T01:05:59;1.40;;;1.30;;
1799;SDS011;919;48.274;12.292;2022-10-16T01:08:42;1.97;;;1.60;;
1799;SDS011;919;48.274;12.292;2022-10-16T01:11:17;1.50;;;1.40;;
1799;SDS011;919;48.274;12.292;2022-10-16T01:13:49;1.17;;;1.07;;
1799;SDS011;919;48.274;12.292;2022-10-16T01:16:22;1.30;;;1.20;;
1799;SDS011;919;48.274;12.292;2022-10-16T01:18:59;0.70;;;0.70;;
1799;SDS011;919;48.274;12.292;2022-10-16T01:21:33;1.07;;;0.97;;
1799;SDS011;919;48.274;12.292;2022-10-16T01:24:06;9.33;;;0.97;;
1799;SDS011;919;48.274;12.292;2022-10-16T01:26:42;7.50;;;0.73;;
1799;SDS011;919;48.274;12.292;2022-10-16T01:29:48;0.73;;;0.73;;
1799;SDS011;919;48.274;12.292;2022-10-16T01:32:19;1.10;;;1.00;;
1799;SDS011;919;48.274;12.292;2022-10-16T01:34:51;1.27;;;1.17;;
1799;SDS011;919;48.274;12.292;2022-10-16T01:37:24;1.47;;;1.30;;
1799;SDS011;919;48.274;12.292;2022-10-16T01:39:58;0.83;;;0.83;;
1799;SDS011;919;48.274;12.292;2022-10-16T01:42:27;4.13;;;1.13;;
1799;SDS011;919;48.274;12.292;2022-10-16T01:44:59;0.90;;;0.90;;
1799;SDS011;919;48.274;12.292;2022-10-16T01:47:28;1.13;;;0.90;;
1799;SDS011;919;48.274;12.292;2022-10-16T01:49:58;1.00;;;1.00;;
1799;SDS011;919;48.274;12.292;2022-10-16T01:52:26;1.30;;;1.20;;
1799;SDS011;919;48.274;12.292;2022-10-16T01:54:55;1.10;;;1.10;;
1799;SDS011;919;48.274;12.292;2022-10-16T01:57:24;3.43;;;1.27;;
1799;SDS011;919;48.274;12.292;2022-10-16T01:59:52;2.63;;;1.50;;
1799;SDS011;919;48.274;12.292;2022-10-16T02:02:23;6.20;;;1.10;;
1799;SDS011;919;48.274;12.292;2022-10-16T02:04:55;1.20;;;1.10;;
1799;SDS011;919;48.274;12.292;2022-10-16T02:07:24;1.90;;;1.37;;
1799;SDS011;919;48.274;12.292;2022-10-16T02:09:51;1.00;;;1.00;;
1799;SDS011;919;48.274;12.292;2022-10-16T02:12:19;2.53;;;1.23;;
1799;SDS011;919;48.274;12.292;2022-10-16T02:14:50;1.10;;;1.10;;
1799;SDS011;919;48.274;12.292;2022-10-16T02:17:17;1.57;;;1.47;;
1799;SDS011;919;48.274;12.292;2022-10-16T02:19:46;1.40;;;1.30;;
1799;SDS011;919;48.274;12.292;2022-10-16T02:22:16;1.47;;;1.37;;
1799;SDS011;919;48.274;12.292;2022-10-16T02:24:49;3.40;;;1.47;;
1799;SDS011;919;48.274;12.292;2022-10-16T02:27:22;1.03;;;1.00;;
1799;SDS011;919;48.274;12.292;2022-10-16T02:29:54;0.87;;;0.87;;
1799;SDS011;919;48.274;12.292;2022-10-16T02:32:27;1.63;;;1.43;;
1799;SDS011;919;48.274;12.292;2022-10-16T02:34:59;1.53;;;1.43;;
1799;SDS011;919;48.274;12.292;2022-10-16T02:37:26;1.40;;;1.30;;
1799;SDS011;919;48.274;12.292;2022-10-16T02:39:55;1.50;;;1.40;;
1799;SDS011;919;48.274;12.292;2022-10-16T02:42:27;8.40;;;1.57;;
1799;SDS011;919;48.274;12.292;2022-10-16T02:44:55;0.93;;;0.90;;
1799;SDS011;919;48.274;12.292;2022-10-16T02:47:22;1.17;;;1.17;;
1799;SDS011;919;48.274;12.292;2022-10-16T02:49:49;2.10;;;1.30;;
1799;SDS011;919;48.274;12.292;2022-10-16T02:52:17;1.50;;;1.40;;
1799;SDS011;919;48.274;12.292;2022-10-16T02:54:44;1.67;;;1.30;;
1799;SDS011;919;48.274;12.292;2022-10-16T02:57:11;1.60;;;1.50;;
1799;SDS011;919;48.274;12.292;2022-10-16T02:59:38;2.30;;;1.20;;
1799;SDS011;919;48.274;12.292;2022-10-16T03:02:05;10.43;;;1.80;;
1799;SDS011;919;48.274;12.292;2022-10-16T03:04:31;2.80;;;1.50;;
1799;SDS011;919;48.274;12.292;2022-10-16T03:07:18;2.17;;;1.20;;
1799;SDS011;919;48.274;12.292;2022-10-16T03:09:45;1.73;;;1.63;;
1799;SDS011;919;48.274;12.292;2022-10-16T03:12:12;2.87;;;1.90;;
1799;SDS011;919;48.274;12.292;2022-10-16T03:14:39;2.10;;;1.90;;
1799;SDS011;919;48.274;12.292;2022-10-16T03:17:06;1.43;;;1.33;;
1799;SDS011;919;48.274;12.292;2022-10-16T03:19:32;4.13;;;2.10;;
1799;SDS011;919;48.274;12.292;2022-10-16T03:21:59;1.67;;;1.50;;
1799;SDS011;919;48.274;12.292;2022-10-16T03:24:27;2.03;;;1.70;;
1799;SDS011;919;48.274;12.292;2022-10-16T03:26:54;2.20;;;1.70;;
1799;SDS011;919;48.274;12.292;2022-10-16T03:29:21;1.70;;;1.53;;
1799;SDS011;919;48.274;12.292;2022-10-16T03:31:48;5.80;;;1.60;;
1799;SDS011;919;48.274;12.292;2022-10-16T03:34:14;1.50;;;1.40;;
1799;SDS011;919;48.274;12.292;2022-10-16T03:36:41;2.40;;;1.53;;
1799;SDS011;919;48.274;12.292;2022-10-16T03:39:08;1.40;;;1.30;;
1799;SDS011;919;48.274;12.292;2022-10-16T03:41:36;1.37;;;1.10;;
1799;SDS011;919;48.274;12.292;2022-10-16T03:44:03;1.60;;;1.50;;
1799;SDS011;919;48.274;12.292;2022-10-16T03:46:30;1.63;;;1.53;;
1799;SDS011;919;48.274;12.292;2022-10-16T03:48:57;1.50;;;1.40;;
1799;SDS011;919;48.274;12.292;2022-10-16T03:51:24;1.60;;;1.50;;
1799;SDS011;919;48.274;12.292;2022-10-16T03:53:51;1.50;;;1.40;;
1799;SDS011;919;48.274;12.292;2022-10-16T03:56:18;1.50;;;1.40;;
1799;SDS011;919;48.274;12.292;2022-10-16T03:58:46;2.60;;;1.70;;
1799;SDS011;919;48.274;12.292;2022-10-16T04:01:12;1.43;;;1.33;;
1799;SDS011;919;48.274;12.292;2022-10-16T04:03:39;1.80;;;1.70;;
1799;SDS011;919;48.274;12.292;2022-10-16T04:06:06;1.47;;;1.37;;
1799;SDS011;919;48.274;12.292;2022-10-16T04:08:33;1.60;;;1.50;;
1799;SDS011;919;48.274;12.292;2022-10-16T04:11:01;1.80;;;1.70;;
1799;SDS011;919;48.274;12.292;2022-10-16T04:13:28;1.40;;;1.30;;
1799;SDS011;919;48.274;12.292;2022-10-16T04:15:57;1.53;;;1.43;;
1799;SDS011;919;48.274;12.292;2022-10-16T04:18:24;8.00;;;2.43;;
1799;SDS011;919;48.274;12.292;2022-10-16T04:20:52;1.70;;;1.60;;
1799;SDS011;919;48.274;12.292;2022-10-16T04:23:19;2.10;;;2.00;;
1799;SDS011;919;48.274;12.292;2022-10-16T04:25:45;7.57;;;1.90;;
1799;SDS011;919;48.274;12.292;2022-10-16T04:28:12;2.20;;;2.10;;
1799;SDS011;919;48.274;12.292;2022-10-16T04:30:39;1.83;;;1.73;;
1799;SDS011;919;48.274;12.292;2022-10-16T04:33:08;1.90;;;1.80;;
1799;SDS011;919;48.274;12.292;2022-10-16T04:35:35;3.00;;;1.90;;
1799;SDS011;919;48.274;12.292;2022-10-16T04:38:02;1.93;;;1.83;;
1799;SDS011;919;48.274;12.292;2022-10-16T04:40:29;2.20;;;2.07;;
1799;SDS011;919;48.274;12.292;2022-10-16T04:42:57;8.70;;;1.97;;
1799;SDS011;919;48.274;12.292;2022-10-16T04:45:24;2.33;;;2.23;;
1799;SDS011;919;48.274;12.292;2022-10-16T04:47:51;2.77;;;2.33;;
1799;SDS011;919;48.274;12.292;2022-10-16T04:50:19;7.80;;;2.53;;
1799;SDS011;919;48.274;12.292;2022-10-16T04:52:46;3.50;;;1.70;;
1799;SDS011;919;48.274;12.292;2022-10-16T04:55:13;2.80;;;2.47;;
1799;SDS011;919;48.274;12.292;2022-10-16T04:57:40;2.00;;;1.90;;
1799;SDS011;919;48.274;12.292;2022-10-16T05:00:07;2.40;;;2.20;;
1799;SDS011;919;48.274;12.292;2022-10-16T05:02:35;7.63;;;2.50;;
1799;SDS011;919;48.274;12.292;2022-10-16T05:05:01;3.70;;;3.03;;
1799;SDS011;919;48.274;12.292;2022-10-16T05:07:30;3.30;;;3.00;;
1799;SDS011;919;48.274;12.292;2022-10-16T05:09:56;2.40;;;2.20;;
1799;SDS011;919;48.274;12.292;2022-10-16T05:12:23;2.70;;;2.50;;
1799;SDS011;919;48.274;12.292;2022-10-16T05:14:50;2.10;;;2.00;;
1799;SDS011;919;48.274;12.292;2022-10-16T05:17:17;2.30;;;2.20;;
1799;SDS011;919;48.274;12.292;2022-10-16T05:19:44;3.50;;;2.43;;
1799;SDS011;919;48.274;12.292;2022-10-16T05:22:10;3.43;;;3.17;;
1799;SDS011;919;48.274;12.292;2022-10-16T05:24:39;4.03;;;2.83;;
1799;SDS011;919;48.274;12.292;2022-10-16T05:27:05;3.37;;;2.80;;
1799;SDS011;919;48.274;12.292;2022-10-16T05:29:32;3.87;;;2.90;;
1799;SDS011;919;48.274;12.292;2022-10-16T05:32:00;3.40;;;2.80;;
1799;SDS011;919;48.274;12.292;2022-10-16T05:34:26;2.70;;;2.50;;
1799;SDS011;919;48.274;12.292;2022-10-16T05:36:53;4.70;;;3.10;;
1799;SDS011;919;48.274;12.292;2022-10-16T05:39:20;3.17;;;2.87;;
1799;SDS011;919;48.274;12.292;2022-10-16T05:41:49;3.30;;;3.00;;
1799;SDS011;919;48.274;12.292;2022-10-16T05:44:17;3.07;;;2.83;;
1799;SDS011;919;48.274;12.292;2022-10-16T05:46:45;4.63;;;3.00;;
1799;SDS011;919;48.274;12.292;2022-10-16T05:49:12;3.50;;;3.20;;
1799;SDS011;919;48.274;12.292;2022-10-16T05:51:39;4.20;;;2.93;;
1799;SDS011;919;48.274;12.292;2022-10-16T05:54:06;3.30;;;3.03;;
1799;SDS011;919;48.274;12.292;2022-10-16T05:56:33;3.57;;;3.27;;
1799;SDS011;919;48.274;12.292;2022-10-16T05:59:01;2.87;;;2.67;;
1799;SDS011;919;48.274;12.292;2022-10-16T06:01:29;3.87;;;3.57;;
1799;SDS011;919;48.274;12.292;2022-10-16T06:03:56;3.53;;;3.23;;
1799;SDS011;919;48.274;12.292;2022-10-16T06:06:24;3.00;;;2.80;;
1799;SDS011;919;48.274;12.292;2022-10-16T06:08:53;3.47;;;3.27;;
1799;SDS011;919;48.274;12.292;2022-10-16T06:11:22;3.37;;;3.07;;
1799;SDS011;919;48.274;12.292;2022-10-16T06:13:50;3.10;;;2.90;;
1799;SDS011;919;48.274;12.292;2022-10-16T06:16:19;3.20;;;3.00;;
1799;SDS011;919;48.274;12.292;2022-10-16T06:18:46;3.17;;;2.97;;
1799;SDS011;919;48.274;12.292;2022-10-16T06:21:14;3.07;;;2.83;;
1799;SDS011;919;48.274;12.292;2022-10-16T06:23:43;4.13;;;2.90;;
1799;SDS011;919;48.274;12.292;2022-10-16T06:26:11;3.50;;;3.20;;
1799;SDS011;919;48.274;12.292;2022-10-16T06:28:39;3.80;;;3.37;;
1799;SDS011;919;48.274;12.292;2022-10-16T06:31:06;3.23;;;2.97;;
1799;SDS011;919;48.274;12.292;2022-10-16T06:33:36;3.37;;;3.07;;
1799;SDS011;919;48.274;12.292;2022-10-16T06:36:03;3.93;;;3.53;;
1799;SDS011;919;48.274;12.292;2022-10-16T06:38:32;4.60;;;3.63;;
1799;SDS011;919;48.274;12.292;2022-10-16T06:40:59;2.70;;;2.50;;
1799;SDS011;919;48.274;12.292;2022-10-16T06:43:26;3.37;;;3.17;;
1799;SDS011;919;48.274;12.292;2022-10-16T06:45:57;3.80;;;3.27;;
1799;SDS011;919;48.274;12.292;2022-10-16T06:48:25;3.77;;;3.47;;
1799;SDS011;919;48.274;12.292;2022-10-16T06:50:57;3.70;;;3.17;;
1799;SDS011;919;48.274;12.292;2022-10-16T06:53:25;3.00;;;2.80;;
1799;SDS011;919;48.274;12.292;2022-10-16T06:55:53;2.87;;;2.67;;
1799;SDS011;919;48.274;12.292;2022-10-16T06:58:20;3.60;;;3.30;;
1799;SDS011;919;48.274;12.292;2022-10-16T07:00:47;2.60;;;2.40;;
1799;SDS011;919;48.274;12.292;2022-10-16T07:03:15;3.30;;;2.97;;
1799;SDS011;919;48.274;12.292;2022-10-16T07:05:42;4.77;;;3.63;;
1799;SDS011;919;48.274;12.292;2022-10-16T07:08:10;3.30;;;2.90;;
1799;SDS011;919;48.274;12.292;2022-10-16T07:10:37;2.73;;;2.53;;
1799;SDS011;919;48.274;12.292;2022-10-16T07:13:04;3.33;;;3.07;;
1799;SDS011;919;48.274;12.292;2022-10-16T07:15:32;3.20;;;2.90;;
1799;SDS011;919;48.274;12.292;2022-10-16T07:18:00;3.47;;;3.17;;
1799;SDS011;919;48.274;12.292;2022-10-16T07:20:27;2.77;;;2.57;;
1799;SDS011;919;48.274;12.292;2022-10-16T07:22:53;3.13;;;2.93;;
1799;SDS011;919;48.274;12.292;2022-10-16T07:25:22;3.33;;;3.03;;
1799;SDS011;919;48.274;12.292;2022-10-16T07:27:49;3.67;;;3.37;;
1799;SDS011;919;48.274;12.292;2022-10-16T07:30:15;3.00;;;2.70;;
1799;SDS011;919;48.274;12.292;2022-10-16T07:32:42;6.43;;;3.17;;
1799;SDS011;919;48.274;12.292;2022-10-16T07:35:09;2.93;;;2.73;;
1799;SDS011;919;48.274;12.292;2022-10-16T07:37:36;3.10;;;2.80;;
1799;SDS011;919;48.274;12.292;2022-10-16T07:40:03;3.60;;;3.00;;
1799;SDS011;919;48.274;12.292;2022-10-16T07:42:32;8.63;;;3.13;;
1799;SDS011;919;48.274;12.292;2022-10-16T07:44:59;2.53;;;2.40;;
1799;SDS011;919;48.274;12.292;2022-10-16T07:47:26;2.90;;;2.70;;
1799;SDS011;919;48.274;12.292;2022-10-16T07:49:52;3.23;;;2.93;;
1799;SDS011;919;48.274;12.292;2022-10-16T07:52:19;3.40;;;3.10;;
1799;SDS011;919;48.274;12.292;2022-10-16T07:54:46;2.93;;;2.73;;
1799;SDS011;919;48.274;12.292;2022-10-16T07:57:13;3.20;;;2.57;;
1799;SDS011;919;48.274;12.292;2022-10-16T07:59:45;2.87;;;2.67;;
1799;SDS011;919;48.274;12.292;2022-10-16T08:02:12;3.33;;;3.03;;
1799;SDS011;919;48.274;12.292;2022-10-16T08:04:39;3.73;;;3.13;;
1799;SDS011;919;48.274;12.292;2022-10-16T08:07:06;3.10;;;2.90;;
1799;SDS011;919;48.274;12.292;2022-10-16T08:09:34;4.93;;;2.87;;
1799;SDS011;919;48.274;12.292;2022-10-16T08:12:01;2.70;;;2.50;;
1799;SDS011;919;48.274;12.292;2022-10-16T08:14:29;3.10;;;2.87;;
1799;SDS011;919;48.274;12.292;2022-10-16T08:16:57;3.20;;;3.00;;
1799;SDS011;919;48.274;12.292;2022-10-16T08:19:24;3.03;;;2.80;;
1799;SDS011;919;48.274;12.292;2022-10-16T08:21:51;2.60;;;2.40;;
1799;SDS011;919;48.274;12.292;2022-10-16T08:24:17;3.30;;;3.00;;
1799;SDS011;919;48.274;12.292;2022-10-16T08:26:44;2.73;;;2.53;;
1799;SDS011;919;48.274;12.292;2022-10-16T08:29:12;3.20;;;2.60;;
1799;SDS011;919;48.274;12.292;2022-10-16T08:31:40;3.70;;;3.00;;
1799;SDS011;919;48.274;12.292;2022-10-16T08:34:08;3.73;;;2.83;;
1799;SDS011;919;48.274;12.292;2022-10-16T08:36:35;2.97;;;2.70;;
1799;SDS011;919;48.274;12.292;2022-10-16T08:39:01;6.43;;;3.00;;
1799;SDS011;919;48.274;12.292;2022-10-16T08:44:36;3.27;;;2.97;;
1799;SDS011;919;48.274;12.292;2022-10-16T08:47:31;4.33;;;3.27;;
1799;SDS011;919;48.274;12.292;2022-10-16T08:50:11;3.00;;;2.80;;
1799;SDS011;919;48.274;12.292;2022-10-16T08:52:40;5.00;;;3.57;;
1799;SDS011;919;48.274;12.292;2022-10-16T08:55:14;5.73;;;3.57;;
1799;SDS011;919;48.274;12.292;2022-10-16T08:57:49;3.90;;;3.50;;
1799;SDS011;919;48.274;12.292;2022-10-16T09:00:16;3.97;;;2.97;;
1799;SDS011;919;48.274;12.292;2022-10-16T09:02:45;4.03;;;3.63;;
1799;SDS011;919;48.274;12.292;2022-10-16T09:05:21;3.70;;;3.30;;
1799;SDS011;919;48.274;12.292;2022-10-16T09:08:01;3.07;;;2.70;;
1799;SDS011;919;48.274;12.292;2022-10-16T09:10:38;3.67;;;2.83;;
1799;SDS011;919;48.274;12.292;2022-10-16T09:13:14;4.53;;;2.93;;
1799;SDS011;919;48.274;12.292;2022-10-16T09:15:47;4.63;;;3.40;;
1799;SDS011;919;48.274;12.292;2022-10-16T09:18:21;3.67;;;3.37;;
1799;SDS011;919;48.274;12.292;2022-10-16T09:20:57;2.90;;;2.70;;
1799;SDS011;919;48.274;12.292;2022-10-16T09:23:33;3.47;;;3.17;;
1799;SDS011;919;48.274;12.292;2022-10-16T09:26:01;3.23;;;2.93;;
1799;SDS011;919;48.274;12.292;2022-10-16T09:28:30;3.27;;;2.97;;
1799;SDS011;919;48.274;12.292;2022-10-16T09:30:57;3.00;;;2.70;;
1799;SDS011;919;48.274;12.292;2022-10-16T09:33:25;3.57;;;3.27;;
1799;SDS011;919;48.274;12.292;2022-10-16T09:35:57;7.00;;;3.10;;
1799;SDS011;919;48.274;12.292;2022-10-16T09:38:26;3.10;;;2.90;;
1799;SDS011;919;48.274;12.292;2022-10-16T09:40:54;3.43;;;2.87;;
1799;SDS011;919;48.274;12.292;2022-10-16T09:43:23;2.57;;;2.37;;
1799;SDS011;919;48.274;12.292;2022-10-16T09:45:53;2.90;;;2.70;;
1799;SDS011;919;48.274;12.292;2022-10-16T09:48:21;3.00;;;2.80;;
1799;SDS011;919;48.274;12.292;2022-10-16T09:50:55;6.70;;;2.93;;
1799;SDS011;919;48.274;12.292;2022-10-16T09:53:24;2.60;;;2.40;;
1799;SDS011;919;48.274;12.292;2022-10-16T09:56:03;5.77;;;2.90;;
1799;SDS011;919;48.274;12.292;2022-10-16T09:58:31;3.60;;;2.97;;
1799;SDS011;919;48.274;12.292;2022-10-16T10:00:59;2.90;;;2.70;;
1799;SDS011;919;48.274;12.292;2022-10-16T10:03:36;2.53;;;2.33;;
1799;SDS011;919;48.274;12.292;2022-10-16T10:06:16;4.10;;;3.13;;
1799;SDS011;919;48.274;12.292;2022-10-16T10:08:53;5.57;;;3.60;;
1799;SDS011;919;48.274;12.292;2022-10-16T10:11:41;3.23;;;2.80;;
1799;SDS011;919;48.274;12.292;2022-10-16T10:14:16;4.37;;;2.80;;
1799;SDS011;919;48.274;12.292;2022-10-16T10:16:51;3.07;;;2.77;;
1799;SDS011;919;48.274;12.292;2022-10-16T10:19:20;3.50;;;2.43;;
1799;SDS011;919;48.274;12.292;2022-10-16T10:21:49;3.60;;;2.83;;
1799;SDS011;919;48.274;12.292;2022-10-16T10:24:17;2.70;;;2.50;;
1799;SDS011;919;48.274;12.292;2022-10-16T10:26:50;2.47;;;2.27;;
1799;SDS011;919;48.274;12.292;2022-10-16T10:29:26;2.40;;;2.20;;
1799;SDS011;919;48.274;12.292;2022-10-16T10:32:03;3.63;;;3.07;;
1799;SDS011;919;48.274;12.292;2022-10-16T10:34:39;3.73;;;2.50;;
1799;SDS011;919;48.274;12.292;2022-10-16T10:37:23;2.60;;;2.40;;
1799;SDS011;919;48.274;12.292;2022-10-16T10:40:08;2.87;;;2.67;;
1799;SDS011;919;48.274;12.292;2022-10-16T10:42:43;3.03;;;2.40;;
1799;SDS011;919;48.274;12.292;2022-10-16T10:45:18;2.27;;;2.07;;
1799;SDS011;919;48.274;12.292;2022-10-16T10:47:58;3.00;;;2.67;;
1799;SDS011;919;48.274;12.292;2022-10-16T10:50:38;2.33;;;2.13;;
1799;SDS011;919;48.274;12.292;2022-10-16T10:53:11;3.70;;;3.10;;
1799;SDS011;919;48.274;12.292;2022-10-16T10:55:48;3.10;;;2.90;;
1799;SDS011;919;48.274;12.292;2022-10-16T10:58:34;2.13;;;2.03;;
1799;SDS011;919;48.274;12.292;2022-10-16T11:01:22;4.13;;;2.70;;
1799;SDS011;919;48.274;12.292;2022-10-16T11:04:03;4.00;;;2.67;;
1799;SDS011;919;48.274;12.292;2022-10-16T11:06:57;2.60;;;2.40;;
1799;SDS011;919;48.274;12.292;2022-10-16T11:09:30;3.00;;;2.80;;
1799;SDS011;919;48.274;12.292;2022-10-16T11:12:01;2.37;;;2.27;;
1799;SDS011;919;48.274;12.292;2022-10-16T11:14:38;4.33;;;2.40;;
1799;SDS011;919;48.274;12.292;2022-10-16T11:17:13;3.03;;;2.80;;
1799;SDS011;919;48.274;12.292;2022-10-16T11:19:44;2.70;;;2.50;;
1799;SDS011;919;48.274;12.292;2022-10-16T11:22:17;2.40;;;2.20;;
1799;SDS011;919;48.274;12.292;2022-10-16T11:24:49;2.27;;;2.03;;
1799;SDS011;919;48.274;12.292;2022-10-16T11:27:23;2.30;;;2.10;;
1799;SDS011;919;48.274;12.292;2022-10-16T11:30:02;2.60;;;2.40;;
1799;SDS011;919;48.274;12.292;2022-10-16T11:32:34;2.37;;;2.17;;
1799;SDS011;919;48.274;12.292;2022-10-16T11:35:11;2.90;;;2.70;;
1799;SDS011;919;48.274;12.292;2022-10-16T11:37:45;2.50;;;2.30;;
1799;SDS011;919;48.274;12.292;2022-10-16T11:40:19;3.93;;;2.80;;
1799;SDS011;919;48.274;12.292;2022-10-16T11:42:51;2.80;;;2.10;;
1799;SDS011;919;48.274;12.292;2022-10-16T11:45:24;2.47;;;2.27;;
1799;SDS011;919;48.274;12.292;2022-10-16T11:47:58;1.90;;;1.80;;
1799;SDS011;919;48.274;12.292;2022-10-16T11:50:31;2.60;;;2.40;;
1799;SDS011;919;48.274;12.292;2022-10-16T11:53:04;2.07;;;1.97;;
1799;SDS011;919;48.274;12.292;2022-10-16T11:55:40;2.60;;;2.40;;
1799;SDS011;919;48.274;12.292;2022-10-16T11:58:08;2.60;;;2.40;;
1799;SDS011;919;48.274;12.292;2022-10-16T12:00:46;2.10;;;2.00;;
1799;SDS011;919;48.274;12.292;2022-10-16T12:03:20;2.40;;;2.20;;
1799;SDS011;919;48.274;12.292;2022-10-16T12:06:00;2.50;;;2.30;;
1799;SDS011;919;48.274;12.292;2022-10-16T12:08:36;1.63;;;1.53;;
1799;SDS011;919;48.274;12.292;2022-10-16T12:11:09;3.87;;;2.17;;
1799;SDS011;919;48.274;12.292;2022-10-16T12:13:48;2.60;;;1.70;;
1799;SDS011;919;48.274;12.292;2022-10-16T12:16:20;5.23;;;2.33;;
1799;SDS011;919;48.274;12.292;2022-10-16T12:18:48;2.60;;;2.40;;
1799;SDS011;919;48.274;12.292;2022-10-16T12:21:16;2.00;;;1.90;;
1799;SDS011;919;48.274;12.292;2022-10-16T12:23:47;1.83;;;1.73;;
1799;SDS011;919;48.274;12.292;2022-10-16T12:26:24;1.70;;;1.60;;
1799;SDS011;919;48.274;12.292;2022-10-16T12:28:52;2.47;;;2.30;;
1799;SDS011;919;48.274;12.292;2022-10-16T12:31:20;2.10;;;1.90;;
1799;SDS011;919;48.274;12.292;2022-10-16T12:33:56;2.47;;;1.87;;
1799;SDS011;919;48.274;12.292;2022-10-16T12:36:26;1.90;;;1.80;;
1799;SDS011;919;48.274;12.292;2022-10-16T12:38:55;1.70;;;1.60;;
1799;SDS011;919;48.274;12.292;2022-10-16T12:41:27;2.03;;;1.90;;
1799;SDS011;919;48.274;12.292;2022-10-16T12:43:55;1.83;;;1.73;;
1799;SDS011;919;48.274;12.292;2022-10-16T12:49:06;2.20;;;2.00;;
1799;SDS011;919;48.274;12.292;2022-10-16T12:51:46;1.93;;;1.83;;
1799;SDS011;919;48.274;12.292;2022-10-16T12:54:14;2.20;;;1.67;;
1799;SDS011;919;48.274;12.292;2022-10-16T12:56:46;1.90;;;1.63;;
1799;SDS011;919;48.274;12.292;2022-10-16T12:59:23;1.60;;;1.50;;
1799;SDS011;919;48.274;12.292;2022-10-16T13:02:03;1.63;;;1.53;;
1799;SDS011;919;48.274;12.292;2022-10-16T13:04:49;5.50;;;4.17;;
1799;SDS011;919;48.274;12.292;2022-10-16T13:07:37;2.40;;;2.20;;
1799;SDS011;919;48.274;12.292;2022-10-16T13:10:24;1.63;;;1.53;;
1799;SDS011;919;48.274;12.292;2022-10-16T13:13:15;1.50;;;1.40;;
1799;SDS011;919;48.274;12.292;2022-10-16T13:15:58;1.73;;;1.63;;
1799;SDS011;919;48.274;12.292;2022-10-16T13:18:38;1.43;;;1.33;;
1799;SDS011;919;48.274;12.292;2022-10-16T13:21:18;2.30;;;1.40;;
1799;SDS011;919;48.274;12.292;2022-10-16T13:23:53;1.80;;;1.70;;
1799;SDS011;919;48.274;12.292;2022-10-16T13:26:28;1.60;;;1.47;;
1799;SDS011;919;48.274;12.292;2022-10-16T13:29:05;1.73;;;1.60;;
1799;SDS011;919;48.274;12.292;2022-10-16T13:31:32;1.80;;;1.70;;
1799;SDS011;919;48.274;12.292;2022-10-16T13:33:59;1.30;;;1.20;;
1799;SDS011;919;48.274;12.292;2022-10-16T13:36:27;1.67;;;1.57;;
1799;SDS011;919;48.274;12.292;2022-10-16T13:39:06;1.60;;;1.50;;
1799;SDS011;919;48.274;12.292;2022-10-16T13:41:37;6.50;;;1.40;;
1799;SDS011;919;48.274;12.292;2022-10-16T13:44:07;1.60;;;1.50;;
1799;SDS011;919;48.274;12.292;2022-10-16T13:46:39;1.50;;;1.40;;
1799;SDS011;919;48.274;12.292;2022-10-16T13:49:11;1.43;;;1.33;;
1799;SDS011;919;48.274;12.292;2022-10-16T13:51:39;1.23;;;1.23;;
1799;SDS011;919;48.274;12.292;2022-10-16T13:54:07;1.73;;;1.63;;
1799;SDS011;919;48.274;12.292;2022-10-16T13:56:35;1.60;;;1.50;;
1799;SDS011;919;48.274;12.292;2022-10-16T13:59:03;1.57;;;1.47;;
1799;SDS011;919;48.274;12.292;2022-10-16T14:01:32;1.70;;;1.60;;
1799;SDS011;919;48.274;12.292;2022-10-16T14:04:06;1.60;;;1.50;;
1799;SDS011;919;48.274;12.292;2022-10-16T14:06:35;2.10;;;1.90;;
1799;SDS011;919;48.274;12.292;2022-10-16T14:09:05;1.70;;;1.60;;
1799;SDS011;919;48.274;12.292;2022-10-16T14:11:34;1.80;;;1.70;;
1799;SDS011;919;48.274;12.292;2022-10-16T14:14:10;1.60;;;1.50;;
1799;SDS011;919;48.274;12.292;2022-10-16T14:16:40;1.97;;;1.60;;
1799;SDS011;919;48.274;12.292;2022-10-16T14:19:13;2.97;;;1.60;;
1799;SDS011;919;48.274;12.292;2022-10-16T14:21:44;1.50;;;1.40;;
1799;SDS011;919;48.274;12.292;2022-10-16T14:24:12;1.87;;;1.77;;
1799;SDS011;919;48.274;12.292;2022-10-16T14:26:41;1.60;;;1.50;;
1799;SDS011;919;48.274;12.292;2022-10-16T14:29:13;1.50;;;1.40;;
1799;SDS011;919;48.274;12.292;2022-10-16T14:31:42;1.43;;;1.33;;
1799;SDS011;919;48.274;12.292;2022-10-16T14:34:23;1.30;;;1.20;;
1799;SDS011;919;48.274;12.292;2022-10-16T14:36:55;2.13;;;1.53;;
1799;SDS011;919;48.274;12.292;2022-10-16T14:39:24;1.07;;;1.07;;
1799;SDS011;919;48.274;12.292;2022-10-16T14:41:52;1.60;;;1.50;;
1799;SDS011;919;48.274;12.292;2022-10-16T14:44:21;2.10;;;2.00;;
1799;SDS011;919;48.274;12.292;2022-10-16T14:46:55;2.23;;;2.07;;
1799;SDS011;919;48.274;12.292;2022-10-16T14:49:22;1.93;;;1.73;;
1799;SDS011;919;48.274;12.292;2022-10-16T14:51:50;1.83;;;1.73;;
1799;SDS011;919;48.274;12.292;2022-10-16T14:54:18;2.10;;;1.87;;
1799;SDS011;919;48.274;12.292;2022-10-16T14:56:46;2.00;;;1.87;;
1799;SDS011;919;48.274;12.292;2022-10-16T14:59:17;1.87;;;1.77;;
1799;SDS011;919;48.274;12.292;2022-10-16T15:01:46;3.33;;;1.83;;
1799;SDS011;919;48.274;12.292;2022-10-16T15:04:14;2.00;;;1.90;;
1799;SDS011;919;48.274;12.292;2022-10-16T15:06:42;1.63;;;1.30;;
1799;SDS011;919;48.274;12.292;2022-10-16T15:09:09;1.97;;;1.87;;
1799;SDS011;919;48.274;12.292;2022-10-16T15:11:36;3.20;;;1.80;;
1799;SDS011;919;48.274;12.292;2022-10-16T15:14:04;2.07;;;1.70;;
1799;SDS011;919;48.274;12.292;2022-10-16T15:16:32;3.00;;;2.17;;
1799;SDS011;919;48.274;12.292;2022-10-16T15:18:59;6.70;;;3.83;;
1799;SDS011;919;48.274;12.292;2022-10-16T15:21:27;3.80;;;2.47;;
1799;SDS011;919;48.274;12.292;2022-10-16T15:23:55;15.93;;;5.20;;
1799;SDS011;919;48.274;12.292;2022-10-16T15:26:23;7.03;;;4.50;;
1799;SDS011;919;48.274;12.292;2022-10-16T15:28:50;2.67;;;2.47;;
1799;SDS011;919;48.274;12.292;2022-10-16T15:31:17;4.23;;;2.23;;
1799;SDS011;919;48.274;12.292;2022-10-16T15:33:44;2.30;;;2.10;;
1799;SDS011;919;48.274;12.292;2022-10-16T15:36:18;4.53;;;2.87;;
1799;SDS011;919;48.274;12.292;2022-10-16T15:38:52;3.20;;;2.10;;
1799;SDS011;919;48.274;12.292;2022-10-16T15:41:19;2.77;;;2.20;;